createdAt,value
2018-07-10T00:00:34.467Z,1017.87
2018-07-10T00:01:43.325Z,1017.87
2018-07-10T00:02:52.460Z,1017.89
2018-07-10T00:04:01.319Z,1017.88
2018-07-10T00:05:10.179Z,1017.85
2018-07-10T00:06:19.043Z,1017.83
2018-07-10T00:07:28.171Z,1017.88
2018-07-10T00:08:37.310Z,1017.86
2018-07-10T00:09:46.170Z,1017.8
2018-07-10T00:10:55.085Z,1017.79
2018-07-10T00:12:04.222Z,1017.79
2018-07-10T00:13:13.082Z,1017.84
2018-07-10T00:14:22.090Z,1017.78
2018-07-10T00:15:30.948Z,1017.77
2018-07-10T00:16:40.091Z,1017.8
2018-07-10T00:17:48.947Z,1017.81
2018-07-10T00:18:58.091Z,1017.77
2018-07-10T00:20:07.100Z,1017.77
2018-07-10T00:21:15.959Z,1017.7
2018-07-10T00:22:25.099Z,1017.76
2018-07-10T00:23:33.962Z,1017.77
2018-07-10T00:24:42.820Z,1017.77
2018-07-10T00:25:52.308Z,1017.73
2018-07-10T00:27:01.167Z,1017.73
2018-07-10T00:28:10.028Z,1017.69
2018-07-10T00:29:18.884Z,1017.62
2018-07-10T00:30:27.745Z,1017.58
2018-07-10T00:31:37.031Z,1017.6
2018-07-10T00:32:45.888Z,1017.61
2018-07-10T00:33:54.748Z,1017.55
2018-07-10T00:35:03.607Z,1017.59
2018-07-10T00:36:12.467Z,1017.55
2018-07-10T00:37:21.481Z,1017.51
2018-07-10T00:38:30.341Z,1017.45
2018-07-10T00:39:39.199Z,1017.45
2018-07-10T00:40:48.060Z,1017.43
2018-07-10T00:41:56.917Z,1017.4
2018-07-10T00:43:06.059Z,1017.4
2018-07-10T00:44:15.196Z,1017.35
2018-07-10T00:45:24.055Z,1017.39
2018-07-10T00:46:32.912Z,1017.35
2018-07-10T00:47:42.047Z,1017.3
2018-07-10T00:48:51.187Z,1017.34
2018-07-10T00:50:00.054Z,1017.34
2018-07-10T00:51:09.188Z,1017.33
2018-07-10T00:52:18.754Z,1017.31
2018-07-10T00:53:27.617Z,1017.34
2018-07-10T00:54:36.757Z,1017.36
2018-07-10T00:55:45.620Z,1017.32
2018-07-10T00:56:54.472Z,1017.3
2018-07-10T00:58:03.329Z,1017.35
2018-07-10T00:59:12.187Z,1017.32
2018-07-10T01:00:21.054Z,1017.38
2018-07-10T01:01:30.183Z,1017.43
2018-07-10T01:02:39.316Z,1017.42
2018-07-10T01:03:48.175Z,1017.39
2018-07-10T01:04:57.033Z,1017.39
2018-07-10T01:06:06.040Z,1017.35
2018-07-10T01:07:14.899Z,1017.34
2018-07-10T01:08:23.756Z,1017.32
2018-07-10T01:09:32.614Z,1017.26
2018-07-10T01:10:41.472Z,1017.27
2018-07-10T01:11:50.484Z,1017.21
2018-07-10T01:13:00.176Z,1017.24
2018-07-10T01:14:09.034Z,1017.22
2018-07-10T01:15:17.892Z,1017.19
2018-07-10T01:16:26.748Z,1017.13
2018-07-10T01:17:35.711Z,1017.14
2018-07-10T01:18:44.579Z,1017.08
2018-07-10T01:19:53.733Z,1017.03
2018-07-10T01:21:02.592Z,1017.06
2018-07-10T01:22:11.451Z,1017.08
2018-07-10T01:23:20.459Z,1017.07
2018-07-10T01:24:29.317Z,1017.1
2018-07-10T01:25:38.729Z,1017.06
2018-07-10T01:26:47.870Z,1017.03
2018-07-10T01:27:56.730Z,1016.98
2018-07-10T01:29:05.692Z,1016.95
2018-07-10T01:30:14.549Z,1016.98
2018-07-10T01:31:23.403Z,1016.99
2018-07-10T01:32:32.261Z,1016.98
2018-07-10T01:33:41.169Z,1016.96
2018-07-10T01:34:51.088Z,1016.94
2018-07-10T01:35:59.947Z,1016.94
2018-07-10T01:37:08.807Z,1016.89
2018-07-10T01:38:17.669Z,1016.91
2018-07-10T01:39:26.525Z,1016.88
2018-07-10T01:40:35.662Z,1016.91
2018-07-10T01:41:44.520Z,1016.88
2018-07-10T01:42:53.380Z,1016.89
2018-07-10T01:44:02.512Z,1016.87
2018-07-10T01:45:11.373Z,1016.84
2018-07-10T01:46:20.585Z,1016.89
2018-07-10T01:47:29.444Z,1016.88
2018-07-10T01:48:38.301Z,1016.88
2018-07-10T01:49:47.435Z,1016.85
2018-07-10T01:50:56.299Z,1016.81
2018-07-10T01:52:05.156Z,1016.8
2018-07-10T01:53:14.016Z,1016.76
2018-07-10T01:54:22.872Z,1016.73
2018-07-10T01:55:31.735Z,1016.69
2018-07-10T01:56:40.743Z,1016.72
2018-07-10T01:57:49.891Z,1016.66
2018-07-10T01:58:58.752Z,1016.62
2018-07-10T02:00:07.892Z,1016.6
2018-07-10T02:01:16.751Z,1016.6
2018-07-10T02:02:25.610Z,1016.63
2018-07-10T02:03:34.903Z,1016.63
2018-07-10T02:04:43.760Z,1016.62
2018-07-10T02:05:52.620Z,1016.57
2018-07-10T02:07:02.038Z,1016.58
2018-07-10T02:08:10.895Z,1016.55
2018-07-10T02:09:19.754Z,1016.58
2018-07-10T02:10:28.614Z,1016.57
2018-07-10T02:11:37.747Z,1016.56
2018-07-10T02:12:46.883Z,1016.54
2018-07-10T02:13:55.777Z,1016.54
2018-07-10T02:15:05.333Z,1016.54
2018-07-10T02:16:14.192Z,1016.52
2018-07-10T02:17:23.050Z,1016.48
2018-07-10T02:18:32.187Z,1016.47
2018-07-10T02:19:41.352Z,1016.44
2018-07-10T02:20:50.210Z,1016.46
2018-07-10T02:21:59.079Z,1016.38
2018-07-10T02:23:07.939Z,1016.43
2018-07-10T02:24:17.076Z,1016.34
2018-07-10T02:25:25.932Z,1016.28
2018-07-10T02:26:34.942Z,1016.31
2018-07-10T02:27:43.800Z,1016.34
2018-07-10T02:28:52.657Z,1016.33
2018-07-10T02:30:01.789Z,1016.29
2018-07-10T02:31:10.929Z,1016.26
2018-07-10T02:32:19.891Z,1016.3
2018-07-10T02:33:28.750Z,1016.28
2018-07-10T02:34:37.894Z,1016.25
2018-07-10T02:35:47.303Z,1016.26
2018-07-10T02:36:56.710Z,1016.2
2018-07-10T02:38:05.731Z,1016.2
2018-07-10T02:39:14.866Z,1016.17
2018-07-10T02:40:23.727Z,1016.14
2018-07-10T02:41:32.871Z,1016.11
2018-07-10T02:42:42.019Z,1016.06
2018-07-10T02:43:51.866Z,1016.09
2018-07-10T02:45:01.839Z,1016.07
2018-07-10T02:46:10.700Z,1016.15
2018-07-10T02:47:19.566Z,1016.11
2018-07-10T02:48:28.987Z,1016.09
2018-07-10T02:49:38.271Z,1016.11
2018-07-10T02:50:47.408Z,1016.08
2018-07-10T02:51:56.544Z,1016.08
2018-07-10T02:53:05.401Z,1016.03
2018-07-10T02:54:15.093Z,1016.01
2018-07-10T02:55:23.961Z,1016.05
2018-07-10T02:56:33.642Z,1015.99
2018-07-10T02:57:42.498Z,1015.99
2018-07-10T02:58:51.635Z,1015.94
2018-07-10T03:00:01.049Z,1015.91
2018-07-10T03:01:10.188Z,1015.93
2018-07-10T03:02:19.325Z,1015.92
2018-07-10T03:03:28.185Z,1015.87
2018-07-10T03:04:37.042Z,1015.87
2018-07-10T03:05:46.182Z,1015.86
2018-07-10T03:06:55.419Z,1015.8
2018-07-10T03:08:04.283Z,1015.84
2018-07-10T03:09:13.422Z,1015.8
2018-07-10T03:10:23.107Z,1015.83
2018-07-10T03:11:32.513Z,1015.72
2018-07-10T03:12:41.525Z,1015.81
2018-07-10T03:13:51.207Z,1015.79
2018-07-10T03:15:00.344Z,1015.76
2018-07-10T03:16:09.481Z,1015.77
2018-07-10T03:17:18.341Z,1015.78
2018-07-10T03:18:27.355Z,1015.74
2018-07-10T03:19:36.495Z,1015.75
2018-07-10T03:20:45.353Z,1015.7
2018-07-10T03:21:54.490Z,1015.74
2018-07-10T03:23:03.627Z,1015.73
2018-07-10T03:24:12.484Z,1015.72
2018-07-10T03:25:21.620Z,1015.71
2018-07-10T03:26:30.478Z,1015.74
2018-07-10T03:27:39.631Z,1015.65
2018-07-10T03:28:48.490Z,1015.64
2018-07-10T03:29:57.347Z,1015.69
2018-07-10T03:31:07.074Z,1015.63
2018-07-10T03:32:16.212Z,1015.64
2018-07-10T03:33:25.069Z,1015.62
2018-07-10T03:34:33.925Z,1015.61
2018-07-10T03:35:42.787Z,1015.59
2018-07-10T03:36:51.927Z,1015.59
2018-07-10T03:38:00.783Z,1015.62
2018-07-10T03:39:09.640Z,1015.59
2018-07-10T03:40:18.499Z,1015.54
2018-07-10T03:41:27.359Z,1015.57
2018-07-10T03:42:36.496Z,1015.48
2018-07-10T03:43:45.354Z,1015.55
2018-07-10T03:44:54.212Z,1015.54
2018-07-10T03:46:03.068Z,1015.54
2018-07-10T03:47:12.202Z,1015.5
2018-07-10T03:48:21.062Z,1015.48
2018-07-10T03:49:29.926Z,1015.46
2018-07-10T03:50:39.057Z,1015.44
2018-07-10T03:51:47.915Z,1015.37
2018-07-10T03:52:56.922Z,1015.39
2018-07-10T03:54:05.784Z,1015.43
2018-07-10T03:55:14.917Z,1015.43
2018-07-10T03:56:23.779Z,1015.45
2018-07-10T03:57:32.636Z,1015.4
2018-07-10T03:58:41.494Z,1015.36
2018-07-10T03:59:50.355Z,1015.36
2018-07-10T04:00:59.213Z,1015.35
2018-07-10T04:02:08.072Z,1015.36
2018-07-10T04:03:16.942Z,1015.33
2018-07-10T04:04:25.796Z,1015.34
2018-07-10T04:05:34.650Z,1015.3
2018-07-10T04:06:43.509Z,1015.32
2018-07-10T04:07:52.367Z,1015.34
2018-07-10T04:09:01.283Z,1015.28
2018-07-10T04:10:10.087Z,1015.25
2018-07-10T04:11:19.223Z,1015.27
2018-07-10T04:12:28.080Z,1015.29
2018-07-10T04:13:36.938Z,1015.26
2018-07-10T04:14:45.796Z,1015.23
2018-07-10T04:15:54.930Z,1015.24
2018-07-10T04:17:03.788Z,1015.23
2018-07-10T04:18:12.654Z,1015.26
2018-07-10T04:19:21.791Z,1015.24
2018-07-10T04:20:30.926Z,1015.3
2018-07-10T04:21:39.933Z,1015.28
2018-07-10T04:22:48.788Z,1015.26
2018-07-10T04:23:57.646Z,1015.28
2018-07-10T04:25:06.501Z,1015.3
2018-07-10T04:26:15.360Z,1015.26
2018-07-10T04:27:24.369Z,1015.22
2018-07-10T04:28:33.223Z,1015.18
2018-07-10T04:29:42.080Z,1015.19
2018-07-10T04:30:51.219Z,1015.21
2018-07-10T04:32:00.352Z,1015.23
2018-07-10T04:33:09.208Z,1015.23
2018-07-10T04:34:18.066Z,1015.21
2018-07-10T04:35:26.925Z,1015.17
2018-07-10T04:36:35.784Z,1015.19
2018-07-10T04:37:44.638Z,1015.2
2018-07-10T04:38:53.595Z,1015.18
2018-07-10T04:40:02.452Z,1015.1
2018-07-10T04:41:11.309Z,1015.18
2018-07-10T04:42:20.240Z,1015.16
2018-07-10T04:43:29.392Z,1015.18
2018-07-10T04:44:38.600Z,1015.17
2018-07-10T04:45:47.469Z,1015.16
2018-07-10T04:46:56.604Z,1015.15
2018-07-10T04:48:05.464Z,1015.18
2018-07-10T04:49:14.327Z,1015.14
2018-07-10T04:50:23.661Z,1015.16
2018-07-10T04:51:32.521Z,1015.12
2018-07-10T04:52:41.380Z,1015.15
2018-07-10T04:53:50.530Z,1015.12
2018-07-10T04:54:59.386Z,1015.12
2018-07-10T04:56:08.593Z,1015.08
2018-07-10T04:57:17.459Z,1015.09
2018-07-10T04:58:26.317Z,1015.04
2018-07-10T04:59:35.174Z,1015.04
2018-07-10T05:00:44.032Z,1015.1
2018-07-10T05:01:52.990Z,1015.02
2018-07-10T05:03:01.848Z,1015.06
2018-07-10T05:04:10.705Z,1015.12
2018-07-10T05:05:19.841Z,1015.06
2018-07-10T05:06:28.702Z,1015.07
2018-07-10T05:07:37.559Z,1015.07
2018-07-10T05:08:46.418Z,1015.02
2018-07-10T05:09:55.279Z,1015.02
2018-07-10T05:11:04.425Z,1014.95
2018-07-10T05:12:13.844Z,1014.97
2018-07-10T05:13:23.250Z,1014.95
2018-07-10T05:14:32.113Z,1014.92
2018-07-10T05:15:40.969Z,1014.87
2018-07-10T05:16:49.827Z,1014.89
2018-07-10T05:17:58.684Z,1014.97
2018-07-10T05:19:07.893Z,1014.92
2018-07-10T05:20:16.752Z,1014.9
2018-07-10T05:21:25.612Z,1014.9
2018-07-10T05:22:34.472Z,1014.89
2018-07-10T05:23:43.329Z,1014.89
2018-07-10T05:24:52.187Z,1014.9
2018-07-10T05:26:01.048Z,1014.92
2018-07-10T05:27:09.903Z,1014.87
2018-07-10T05:28:18.762Z,1014.93
2018-07-10T05:29:27.621Z,1014.87
2018-07-10T05:30:36.630Z,1014.89
2018-07-10T05:31:45.773Z,1014.82
2018-07-10T05:32:55.458Z,1014.78
2018-07-10T05:34:04.318Z,1014.8
2018-07-10T05:35:13.178Z,1014.76
2018-07-10T05:36:22.673Z,1014.8
2018-07-10T05:37:31.809Z,1014.73
2018-07-10T05:38:40.674Z,1014.75
2018-07-10T05:39:49.533Z,1014.71
2018-07-10T05:40:58.391Z,1014.64
2018-07-10T05:42:07.635Z,1014.65
2018-07-10T05:43:16.773Z,1014.58
2018-07-10T05:44:25.633Z,1014.58
2018-07-10T05:45:34.490Z,1014.57
2018-07-10T05:46:43.624Z,1014.59
2018-07-10T05:47:52.484Z,1014.59
2018-07-10T05:49:01.343Z,1014.53
2018-07-10T05:50:10.203Z,1014.61
2018-07-10T05:51:19.059Z,1014.56
2018-07-10T05:52:27.924Z,1014.55
2018-07-10T05:53:36.932Z,1014.59
2018-07-10T05:54:45.793Z,1014.56
2018-07-10T05:55:54.651Z,1014.53
2018-07-10T05:57:03.509Z,1014.54
2018-07-10T05:58:12.367Z,1014.51
2018-07-10T05:59:21.321Z,1014.57
2018-07-10T06:00:30.181Z,1014.54
2018-07-10T06:01:39.593Z,1014.55
2018-07-10T06:02:48.449Z,1014.55
2018-07-10T06:03:57.360Z,1014.68
2018-07-10T06:05:06.796Z,1014.62
2018-07-10T06:06:15.655Z,1014.64
2018-07-10T06:07:24.513Z,1014.58
2018-07-10T06:08:33.662Z,1014.55
2018-07-10T06:09:42.519Z,1014.53
2018-07-10T06:10:51.379Z,1014.54
2018-07-10T06:12:00.516Z,1014.54
2018-07-10T06:13:09.372Z,1014.52
2018-07-10T06:14:18.229Z,1014.52
2018-07-10T06:15:27.093Z,1014.56
2018-07-10T06:16:35.952Z,1014.54
2018-07-10T06:17:44.811Z,1014.59
2018-07-10T06:18:54.234Z,1014.55
2018-07-10T06:20:03.092Z,1014.51
2018-07-10T06:21:11.953Z,1014.52
2018-07-10T06:22:21.015Z,1014.51
2018-07-10T06:23:30.216Z,1014.53
2018-07-10T06:24:39.074Z,1014.54
2018-07-10T06:25:48.209Z,1014.54
2018-07-10T06:26:57.069Z,1014.53
2018-07-10T06:28:06.249Z,1014.5
2018-07-10T06:29:15.386Z,1014.48
2018-07-10T06:30:24.260Z,1014.49
2018-07-10T06:31:33.110Z,1014.47
2018-07-10T06:32:41.968Z,1014.49
2018-07-10T06:33:50.829Z,1014.49
2018-07-10T06:34:59.967Z,1014.51
2018-07-10T06:36:08.824Z,1014.52
2018-07-10T06:37:17.685Z,1014.53
2018-07-10T06:38:26.545Z,1014.52
2018-07-10T06:39:35.504Z,1014.52
2018-07-10T06:40:44.368Z,1014.51
2018-07-10T06:41:53.224Z,1014.52
2018-07-10T06:43:02.363Z,1014.53
2018-07-10T06:44:11.508Z,1014.55
2018-07-10T06:45:20.518Z,1014.45
2018-07-10T06:46:29.378Z,1014.48
2018-07-10T06:47:38.238Z,1014.45
2018-07-10T06:48:47.434Z,1014.44
2018-07-10T06:49:56.511Z,1014.42
2018-07-10T06:51:05.371Z,1014.43
2018-07-10T06:52:14.608Z,1014.44
2018-07-10T06:53:24.727Z,1014.42
2018-07-10T06:54:33.730Z,1014.42
2018-07-10T06:55:42.865Z,1014.37
2018-07-10T06:56:51.723Z,1014.4
2018-07-10T06:58:00.582Z,1014.43
2018-07-10T06:59:09.443Z,1014.39
2018-07-10T07:00:18.301Z,1014.43
2018-07-10T07:01:27.439Z,1014.44
2018-07-10T07:02:36.296Z,1014.43
2018-07-10T07:03:45.440Z,1014.44
2018-07-10T07:04:54.575Z,1014.45
2018-07-10T07:06:03.540Z,1014.44
2018-07-10T07:07:12.680Z,1014.44
2018-07-10T07:08:21.694Z,1014.41
2018-07-10T07:09:30.832Z,1014.39
2018-07-10T07:10:39.971Z,1014.34
2018-07-10T07:11:48.829Z,1014.33
2018-07-10T07:12:57.689Z,1014.32
2018-07-10T07:14:06.555Z,1014.27
2018-07-10T07:15:15.972Z,1014.28
2018-07-10T07:16:24.840Z,1014.21
2018-07-10T07:17:33.700Z,1014.25
2018-07-10T07:18:42.839Z,1014.21
2018-07-10T07:19:52.100Z,1014.29
2018-07-10T07:21:01.240Z,1014.27
2018-07-10T07:22:10.098Z,1014.28
2018-07-10T07:23:18.957Z,1014.31
2018-07-10T07:24:28.099Z,1014.26
2018-07-10T07:25:37.240Z,1014.26
2018-07-10T07:26:46.106Z,1014.26
2018-07-10T07:27:54.958Z,1014.24
2018-07-10T07:29:04.094Z,1014.23
2018-07-10T07:30:12.952Z,1014.21
2018-07-10T07:31:21.963Z,1014.22
2018-07-10T07:32:30.824Z,1014.23
2018-07-10T07:33:39.683Z,1014.2
2018-07-10T07:34:48.541Z,1014.24
2018-07-10T07:35:57.697Z,1014.23
2018-07-10T07:37:06.918Z,1014.25
2018-07-10T07:38:15.769Z,1014.25
2018-07-10T07:39:24.631Z,1014.27
2018-07-10T07:40:33.491Z,1014.22
2018-07-10T07:41:42.356Z,1014.24
2018-07-10T07:42:51.216Z,1014.19
2018-07-10T07:44:00.223Z,1014.23
2018-07-10T07:45:08.937Z,1014.21
2018-07-10T07:46:18.074Z,1014.23
2018-07-10T07:47:26.934Z,1014.27
2018-07-10T07:48:35.794Z,1014.27
2018-07-10T07:49:44.655Z,1014.28
2018-07-10T07:50:53.514Z,1014.19
2018-07-10T07:52:02.376Z,1014.27
2018-07-10T07:53:11.236Z,1014.23
2018-07-10T07:54:20.195Z,1014.17
2018-07-10T07:55:29.055Z,1014.2
2018-07-10T07:56:37.916Z,1014.22
2018-07-10T07:57:47.252Z,1014.16
2018-07-10T07:58:56.387Z,1014.21
2018-07-10T08:00:05.401Z,1014.16
2018-07-10T08:01:14.262Z,1014.11
2018-07-10T08:02:23.120Z,1014.13
2018-07-10T08:03:31.985Z,1014.1
2018-07-10T08:04:40.841Z,1014.11
2018-07-10T08:05:50.056Z,1014.19
2018-07-10T08:06:58.919Z,1014.16
2018-07-10T08:08:07.778Z,1014.08
2018-07-10T08:09:16.925Z,1014.1
2018-07-10T08:10:25.784Z,1014.09
2018-07-10T08:11:34.921Z,1014.06
2018-07-10T08:12:44.056Z,1014
2018-07-10T08:13:52.916Z,1014.05
2018-07-10T08:15:01.778Z,1014.04
2018-07-10T08:16:11.192Z,1014
2018-07-10T08:17:20.058Z,1014.01
2018-07-10T08:18:28.912Z,1013.97
2018-07-10T08:19:37.771Z,1013.97
2018-07-10T08:20:46.632Z,1013.97
2018-07-10T08:21:55.772Z,1013.92
2018-07-10T08:23:04.634Z,1013.98
2018-07-10T08:24:13.766Z,1013.97
2018-07-10T08:25:23.211Z,1013.86
2018-07-10T08:26:32.072Z,1013.85
2018-07-10T08:27:40.929Z,1013.83
2018-07-10T08:28:50.214Z,1013.81
2018-07-10T08:29:59.076Z,1013.82
2018-07-10T08:31:07.937Z,1013.79
2018-07-10T08:32:16.797Z,1013.83
2018-07-10T08:33:25.738Z,1013.81
2018-07-10T08:34:35.114Z,1013.83
2018-07-10T08:35:43.973Z,1013.82
2018-07-10T08:36:53.114Z,1013.79
2018-07-10T08:38:01.973Z,1013.85
2018-07-10T08:39:10.833Z,1013.79
2018-07-10T08:40:19.968Z,1013.8
2018-07-10T08:41:29.105Z,1013.77
2018-07-10T08:42:37.968Z,1013.76
2018-07-10T08:43:46.830Z,1013.8
2018-07-10T08:44:55.692Z,1013.79
2018-07-10T08:46:04.834Z,1013.78
2018-07-10T08:47:13.696Z,1013.73
2018-07-10T08:48:22.559Z,1013.72
2018-07-10T08:49:31.419Z,1013.73
2018-07-10T08:50:40.319Z,1013.77
2018-07-10T08:51:49.142Z,1013.75
2018-07-10T08:52:58.004Z,1013.72
2018-07-10T08:54:07.412Z,1013.72
2018-07-10T08:55:16.273Z,1013.75
2018-07-10T08:56:25.134Z,1013.73
2018-07-10T08:57:34.273Z,1013.69
2018-07-10T08:58:43.137Z,1013.77
2018-07-10T08:59:52.320Z,1013.66
2018-07-10T09:01:01.414Z,1013.62
2018-07-10T09:02:10.553Z,1013.58
2018-07-10T09:03:19.415Z,1013.61
2018-07-10T09:04:28.280Z,1013.61
2018-07-10T09:05:37.145Z,1013.56
2018-07-10T09:06:46.005Z,1013.64
2018-07-10T09:07:54.885Z,1013.7
2018-07-10T09:09:03.723Z,1013.79
2018-07-10T09:10:12.586Z,1013.82
2018-07-10T09:11:21.442Z,1013.79
2018-07-10T09:12:30.301Z,1013.77
2018-07-10T09:13:39.439Z,1013.75
2018-07-10T09:14:48.349Z,1013.68
2018-07-10T09:15:57.212Z,1013.7
2018-07-10T09:17:06.072Z,1013.7
2018-07-10T09:18:14.932Z,1013.68
2018-07-10T09:19:23.792Z,1013.65
2018-07-10T09:20:33.005Z,1013.64
2018-07-10T09:21:42.137Z,1013.59
2018-07-10T09:22:50.999Z,1013.63
2018-07-10T09:24:00.137Z,1013.66
2018-07-10T09:25:08.996Z,1013.66
2018-07-10T09:26:18.006Z,1013.66
2018-07-10T09:27:26.864Z,1013.71
2018-07-10T09:28:35.725Z,1013.72
2018-07-10T09:29:44.584Z,1013.71
2018-07-10T09:30:53.443Z,1013.72
2018-07-10T09:32:02.586Z,1013.7
2018-07-10T09:33:11.448Z,1013.65
2018-07-10T09:34:20.307Z,1013.65
2018-07-10T09:35:29.450Z,1013.64
2018-07-10T09:36:38.316Z,1013.66
2018-07-10T09:37:47.184Z,1013.59
2018-07-10T09:38:56.037Z,1013.62
2018-07-10T09:40:05.172Z,1013.67
2018-07-10T09:41:14.036Z,1013.66
2018-07-10T09:42:22.901Z,1013.7
2018-07-10T09:43:32.112Z,1013.69
2018-07-10T09:44:40.977Z,1013.65
2018-07-10T09:45:49.841Z,1013.64
2018-07-10T09:46:58.709Z,1013.64
2018-07-10T09:48:08.288Z,1013.71
2018-07-10T09:49:17.296Z,1013.69
2018-07-10T09:50:26.159Z,1013.69
2018-07-10T09:51:35.021Z,1013.74
2018-07-10T09:52:43.881Z,1013.74
2018-07-10T09:53:52.741Z,1013.78
2018-07-10T09:55:01.649Z,1013.73
2018-07-10T09:56:10.466Z,1013.74
2018-07-10T09:57:19.328Z,1013.77
2018-07-10T09:58:28.195Z,1013.71
2018-07-10T09:59:37.053Z,1013.68
2018-07-10T10:00:46.019Z,1013.76
2018-07-10T10:01:54.916Z,1013.76
2018-07-10T10:03:04.447Z,1013.78
2018-07-10T10:04:13.308Z,1013.72
2018-07-10T10:05:22.174Z,1013.73
2018-07-10T10:06:31.185Z,1013.71
2018-07-10T10:07:40.332Z,1013.76
2018-07-10T10:08:49.195Z,1013.73
2018-07-10T10:09:58.340Z,1013.75
2018-07-10T10:11:07.202Z,1013.8
2018-07-10T10:12:16.071Z,1013.76
2018-07-10T10:13:25.211Z,1013.81
2018-07-10T10:14:34.075Z,1013.79
2018-07-10T10:15:42.940Z,1013.8
2018-07-10T10:16:52.074Z,1013.81
2018-07-10T10:18:00.939Z,1013.87
2018-07-10T10:19:10.079Z,1013.88
2018-07-10T10:20:18.942Z,1013.83
2018-07-10T10:21:27.803Z,1013.82
2018-07-10T10:22:37.224Z,1013.82
2018-07-10T10:23:46.647Z,1013.85
2018-07-10T10:24:55.508Z,1013.87
2018-07-10T10:26:04.926Z,1013.88
2018-07-10T10:27:13.786Z,1013.9
2018-07-10T10:28:22.652Z,1013.82
2018-07-10T10:29:31.663Z,1013.89
2018-07-10T10:30:40.525Z,1013.85
2018-07-10T10:31:49.387Z,1013.87
2018-07-10T10:32:58.250Z,1013.87
2018-07-10T10:34:07.113Z,1013.84
2018-07-10T10:35:16.353Z,1013.84
2018-07-10T10:36:25.218Z,1013.76
2018-07-10T10:37:34.087Z,1013.79
2018-07-10T10:38:42.946Z,1013.79
2018-07-10T10:39:51.809Z,1013.78
2018-07-10T10:41:00.824Z,1013.79
2018-07-10T10:42:09.685Z,1013.83
2018-07-10T10:43:18.551Z,1013.79
2018-07-10T10:44:27.688Z,1013.84
2018-07-10T10:45:36.552Z,1013.84
2018-07-10T10:46:45.568Z,1013.88
2018-07-10T10:47:54.439Z,1013.95
2018-07-10T10:49:03.303Z,1013.96
2018-07-10T10:50:12.442Z,1013.91
2018-07-10T10:51:21.584Z,1013.98
2018-07-10T10:52:30.450Z,1013.89
2018-07-10T10:53:39.314Z,1013.9
2018-07-10T10:54:48.557Z,1013.85
2018-07-10T10:55:57.694Z,1013.88
2018-07-10T10:57:06.656Z,1013.85
2018-07-10T10:58:15.520Z,1013.84
2018-07-10T10:59:24.664Z,1013.81
2018-07-10T11:00:33.807Z,1013.79
2018-07-10T11:01:42.669Z,1013.81
2018-07-10T11:02:51.531Z,1013.83
2018-07-10T11:04:00.545Z,1013.83
2018-07-10T11:05:09.406Z,1013.8
2018-07-10T11:06:18.268Z,1013.81
2018-07-10T11:07:27.133Z,1013.84
2018-07-10T11:08:35.995Z,1013.84
2018-07-10T11:09:44.859Z,1013.86
2018-07-10T11:10:53.721Z,1013.88
2018-07-10T11:12:02.587Z,1013.93
2018-07-10T11:13:11.454Z,1013.91
2018-07-10T11:14:20.316Z,1013.94
2018-07-10T11:15:29.334Z,1013.92
2018-07-10T11:16:38.144Z,1013.97
2018-07-10T11:17:47.008Z,1014.01
2018-07-10T11:18:55.871Z,1014.04
2018-07-10T11:20:04.737Z,1014.04
2018-07-10T11:21:14.224Z,1014.08
2018-07-10T11:22:23.367Z,1014.14
2018-07-10T11:23:32.511Z,1014.1
2018-07-10T11:24:41.373Z,1014.11
2018-07-10T11:25:50.239Z,1014.1
2018-07-10T11:26:59.102Z,1014.09
2018-07-10T11:28:07.966Z,1014.16
2018-07-10T11:29:17.111Z,1014.11
2018-07-10T11:30:26.029Z,1014.09
2018-07-10T11:31:34.840Z,1014.13
2018-07-10T11:32:43.858Z,1014.1
2018-07-10T11:33:52.724Z,1014.16
2018-07-10T11:35:01.867Z,1014.12
2018-07-10T11:36:10.732Z,1014.19
2018-07-10T11:37:19.600Z,1014.08
2018-07-10T11:38:29.365Z,1014.1
2018-07-10T11:39:38.508Z,1014.09
2018-07-10T11:40:47.383Z,1014.11
2018-07-10T11:41:56.233Z,1014.12
2018-07-10T11:43:05.377Z,1014.1
2018-07-10T11:44:14.678Z,1014.13
2018-07-10T11:45:23.820Z,1014.09
2018-07-10T11:46:32.684Z,1014.13
2018-07-10T11:47:41.564Z,1014.11
2018-07-10T11:48:50.429Z,1014.11
2018-07-10T11:49:59.395Z,1014.15
2018-07-10T11:51:08.260Z,1014.22
2018-07-10T11:52:17.401Z,1014.24
2018-07-10T11:53:26.266Z,1014.19
2018-07-10T11:54:35.130Z,1014.27
2018-07-10T11:55:44.143Z,1014.27
2018-07-10T11:56:53.287Z,1014.31
2018-07-10T11:58:02.151Z,1014.31
2018-07-10T11:59:11.575Z,1014.33
2018-07-10T12:00:20.445Z,1014.36
2018-07-10T12:01:29.309Z,1014.32
2018-07-10T12:02:38.172Z,1014.31
2018-07-10T12:03:47.087Z,1014.33
2018-07-10T12:04:56.577Z,1014.31
2018-07-10T12:06:05.376Z,1014.42
2018-07-10T12:07:14.243Z,1014.32
2018-07-10T12:08:23.109Z,1014.32
2018-07-10T12:09:31.975Z,1014.37
2018-07-10T12:10:40.846Z,1014.35
2018-07-10T12:11:49.710Z,1014.38
2018-07-10T12:12:58.931Z,1014.34
2018-07-10T12:14:07.795Z,1014.33
2018-07-10T12:15:16.939Z,1014.32
2018-07-10T12:16:26.080Z,1014.35
2018-07-10T12:17:35.229Z,1014.28
2018-07-10T12:18:44.112Z,1014.27
2018-07-10T12:19:53.262Z,1014.28
2018-07-10T12:21:02.127Z,1014.22
2018-07-10T12:22:11.270Z,1014.39
2018-07-10T12:23:20.142Z,1014.32
2018-07-10T12:24:29.009Z,1014.34
2018-07-10T12:25:38.155Z,1014.38
2018-07-10T12:26:47.020Z,1014.36
2018-07-10T12:27:55.910Z,1014.35
2018-07-10T12:29:05.080Z,1014.46
2018-07-10T12:30:13.948Z,1014.44
2018-07-10T12:31:22.817Z,1014.48
2018-07-10T12:32:31.688Z,1014.36
2018-07-10T12:33:40.558Z,1014.44
2018-07-10T12:34:49.720Z,1014.47
2018-07-10T12:35:58.586Z,1014.51
2018-07-10T12:37:07.450Z,1014.46
2018-07-10T12:38:16.320Z,1014.43
2018-07-10T12:39:25.190Z,1014.45
2018-07-10T12:40:34.059Z,1014.54
2018-07-10T12:41:43.195Z,1014.5
2018-07-10T12:42:52.867Z,1014.68
2018-07-10T12:44:01.734Z,1014.55
2018-07-10T12:45:10.602Z,1014.61
2018-07-10T12:46:19.500Z,1014.56
2018-07-10T12:47:28.344Z,1014.59
2018-07-10T12:48:37.214Z,1014.59
2018-07-10T12:49:46.357Z,1014.6
2018-07-10T12:50:55.515Z,1014.58
2018-07-10T12:52:04.659Z,1014.58
2018-07-10T12:53:13.628Z,1014.7
2018-07-10T12:54:22.782Z,1014.68
2018-07-10T12:55:31.649Z,1014.64
2018-07-10T12:56:40.516Z,1014.73
2018-07-10T12:57:49.384Z,1014.71
2018-07-10T12:58:58.252Z,1014.79
2018-07-10T13:00:07.455Z,1014.79
2018-07-10T13:01:16.324Z,1014.72
2018-07-10T13:02:25.467Z,1014.77
2018-07-10T13:03:34.333Z,1014.78
2018-07-10T13:04:43.474Z,1014.82
2018-07-10T13:05:52.341Z,1014.83
2018-07-10T13:07:01.211Z,1014.83
2018-07-10T13:08:10.080Z,1014.81
2018-07-10T13:09:18.945Z,1014.87
2018-07-10T13:10:27.963Z,1014.87
2018-07-10T13:11:36.830Z,1014.87
2018-07-10T13:12:45.696Z,1014.86
2018-07-10T13:13:54.846Z,1014.84
2018-07-10T13:15:03.992Z,1014.87
2018-07-10T13:16:12.862Z,1014.79
2018-07-10T13:17:21.732Z,1014.97
2018-07-10T13:18:30.600Z,1014.85
2018-07-10T13:19:39.468Z,1014.86
2018-07-10T13:20:48.340Z,1014.92
2018-07-10T13:21:57.763Z,1014.89
2018-07-10T13:23:06.637Z,1014.95
2018-07-10T13:24:15.780Z,1014.91
2018-07-10T13:25:24.652Z,1014.91
2018-07-10T13:26:33.792Z,1014.93
2018-07-10T13:27:42.809Z,1014.97
2018-07-10T13:28:52.234Z,1015
2018-07-10T13:30:01.378Z,1015.1
2018-07-10T13:31:10.522Z,1015
2018-07-10T13:32:19.390Z,1014.94
2018-07-10T13:33:28.256Z,1014.97
2018-07-10T13:34:37.409Z,1015.11
2018-07-10T13:35:46.345Z,1015.03
2018-07-10T13:36:55.929Z,1015.04
2018-07-10T13:38:04.797Z,1015.1
2018-07-10T13:39:13.663Z,1015.1
2018-07-10T13:40:22.528Z,1015.14
2018-07-10T13:41:31.395Z,1015.08
2018-07-10T13:42:40.262Z,1015.17
2018-07-10T13:43:49.413Z,1015.14
2018-07-10T13:44:58.284Z,1015.2
2018-07-10T13:46:07.427Z,1015.17
2018-07-10T13:47:16.290Z,1015.16
2018-07-10T13:48:25.157Z,1015.15
2018-07-10T13:49:34.026Z,1015.22
2018-07-10T13:50:43.273Z,1015.2
2018-07-10T13:51:52.140Z,1015.17
2018-07-10T13:53:01.010Z,1015.21
2018-07-10T13:54:09.890Z,1015.37
2018-07-10T13:55:19.037Z,1015.17
2018-07-10T13:56:27.909Z,1015.17
2018-07-10T13:57:37.336Z,1015.26